createdAt,value
2018-09-12T00:00:28.352Z,99.90
2018-09-12T00:02:56.568Z,99.90
2018-09-12T00:05:24.775Z,99.90
2018-09-12T00:07:52.983Z,99.90
2018-09-12T00:10:21.193Z,99.90
2018-09-12T00:12:49.435Z,99.90
2018-09-12T00:15:17.675Z,99.90
2018-09-12T00:17:45.898Z,99.90
2018-09-12T00:20:14.092Z,99.90
2018-09-12T00:22:42.325Z,99.90
2018-09-12T00:25:10.527Z,99.90
2018-09-12T00:27:38.756Z,99.90
2018-09-12T00:30:06.973Z,99.90
2018-09-12T00:32:35.189Z,99.90
2018-09-12T00:35:03.382Z,99.90
2018-09-12T00:37:31.644Z,99.90
2018-09-12T00:39:59.864Z,99.90
2018-09-12T00:42:28.064Z,99.90
2018-09-12T00:44:56.284Z,99.90
2018-09-12T00:47:24.485Z,99.90
2018-09-12T00:49:52.677Z,99.90
2018-09-12T00:52:20.888Z,99.90
2018-09-12T00:54:49.112Z,99.90
2018-09-12T00:57:17.298Z,99.90
2018-09-12T00:59:45.499Z,99.90
2018-09-12T01:02:13.719Z,99.90
2018-09-12T01:04:41.936Z,99.90
2018-09-12T01:07:10.134Z,99.90
2018-09-12T01:09:38.341Z,99.90
2018-09-12T01:12:07.546Z,99.90
2018-09-12T01:14:35.762Z,99.90
2018-09-12T01:17:03.948Z,99.90
2018-09-12T01:19:32.156Z,99.90
2018-09-12T01:22:00.434Z,99.90
2018-09-12T01:24:28.638Z,99.90
2018-09-12T01:26:56.839Z,99.90
2018-09-12T01:29:26.123Z,99.90
2018-09-12T01:31:54.363Z,99.90
2018-09-12T01:34:22.600Z,99.90
2018-09-12T01:36:50.816Z,99.90
2018-09-12T01:39:19.026Z,99.90
2018-09-12T01:41:47.215Z,99.90
2018-09-12T01:44:15.673Z,99.90
2018-09-12T01:46:43.904Z,99.90
2018-09-12T01:49:17.106Z,99.90
2018-09-12T01:51:46.186Z,99.90
2018-09-12T01:54:14.669Z,99.90
2018-09-12T01:56:42.888Z,99.90
2018-09-12T01:59:11.331Z,99.90
2018-09-12T02:01:39.606Z,99.90
2018-09-12T02:04:07.810Z,99.90
2018-09-12T02:06:36.024Z,99.90
2018-09-12T02:09:06.272Z,99.90
2018-09-12T02:11:34.485Z,99.90
2018-09-12T02:14:02.706Z,99.90
2018-09-12T02:16:30.895Z,99.90
2018-09-12T02:18:59.088Z,99.90
2018-09-12T02:21:27.480Z,99.90
2018-09-12T02:23:55.699Z,99.90
2018-09-12T02:26:23.979Z,99.90
2018-09-12T02:28:52.228Z,99.90
2018-09-12T02:31:20.438Z,99.90
2018-09-12T02:33:48.672Z,99.90
2018-09-12T02:36:22.090Z,99.90
2018-09-12T02:38:50.323Z,99.90
2018-09-12T02:41:18.603Z,99.90
2018-09-12T02:43:46.860Z,99.90
2018-09-12T02:46:15.068Z,99.90
2018-09-12T02:48:43.243Z,99.90
2018-09-12T02:51:11.473Z,99.90
2018-09-12T02:53:39.686Z,99.90
2018-09-12T02:56:07.905Z,99.90
2018-09-12T02:58:36.087Z,99.90
2018-09-12T03:01:04.294Z,99.90
2018-09-12T03:03:32.470Z,99.90
2018-09-12T03:06:00.672Z,99.90
2018-09-12T03:08:28.891Z,99.90
2018-09-12T03:10:57.127Z,99.90
2018-09-12T03:13:25.316Z,99.90
2018-09-12T03:15:53.503Z,99.90
2018-09-12T03:18:21.721Z,99.90
2018-09-12T03:20:50.064Z,99.90
2018-09-12T03:23:18.226Z,99.90
2018-09-12T03:25:46.407Z,99.90
2018-09-12T03:28:14.619Z,99.90
2018-09-12T03:30:42.823Z,99.90
2018-09-12T03:33:11.032Z,99.90
2018-09-12T03:35:39.227Z,99.90
2018-09-12T03:38:07.471Z,99.90
2018-09-12T03:40:35.690Z,99.90
2018-09-12T03:43:03.908Z,99.90
2018-09-12T03:45:32.114Z,99.90
2018-09-12T03:48:00.377Z,99.90
2018-09-12T03:50:28.504Z,99.90
2018-09-12T03:52:56.724Z,99.90
2018-09-12T03:55:24.945Z,99.90
2018-09-12T03:57:53.136Z,99.90
2018-09-12T04:00:21.345Z,99.90
2018-09-12T04:02:49.631Z,99.90
2018-09-12T04:05:17.797Z,99.90
2018-09-12T04:07:46.019Z,99.90
2018-09-12T04:10:14.261Z,99.90
2018-09-12T04:12:42.454Z,99.90
2018-09-12T04:15:10.686Z,99.90
2018-09-12T04:17:38.905Z,99.90
2018-09-12T04:20:07.095Z,99.90
2018-09-12T04:22:35.310Z,99.90
2018-09-12T04:25:03.524Z,99.90
2018-09-12T04:27:31.766Z,99.90
2018-09-12T04:29:59.968Z,99.90
2018-09-12T04:32:28.266Z,99.90
2018-09-12T04:34:56.476Z,99.90
2018-09-12T04:37:24.707Z,99.90
2018-09-12T04:39:52.921Z,99.90
2018-09-12T04:42:21.111Z,99.90
2018-09-12T04:44:49.366Z,99.90
2018-09-12T04:47:17.556Z,99.90
2018-09-12T04:49:45.752Z,99.90
2018-09-12T04:52:15.668Z,99.90
2018-09-12T04:54:43.964Z,99.90
2018-09-12T04:57:12.158Z,99.90
2018-09-12T04:59:40.467Z,99.90
2018-09-12T05:02:08.590Z,99.90
2018-09-12T05:04:36.801Z,99.90
2018-09-12T05:07:05.260Z,99.90
2018-09-12T05:09:33.477Z,99.90
2018-09-12T05:12:01.707Z,99.90
2018-09-12T05:14:29.940Z,99.90
2018-09-12T05:16:58.145Z,99.90
2018-09-12T05:19:26.355Z,99.90
2018-09-12T05:21:54.543Z,99.90
2018-09-12T05:24:22.759Z,99.90
2018-09-12T05:26:50.981Z,99.90
2018-09-12T05:29:19.195Z,99.90
2018-09-12T05:31:47.468Z,99.90
2018-09-12T05:34:15.794Z,99.90
2018-09-12T05:36:43.976Z,99.90
2018-09-12T05:39:12.179Z,99.90
2018-09-12T05:41:40.493Z,99.90
2018-09-12T05:44:08.688Z,99.90
2018-09-12T05:46:37.399Z,99.90
2018-09-12T05:49:05.650Z,99.90
2018-09-12T05:51:33.859Z,99.90
2018-09-12T05:54:02.082Z,99.90
2018-09-12T05:56:30.315Z,99.90
2018-09-12T05:58:58.511Z,99.90
2018-09-12T06:01:26.775Z,99.90
2018-09-12T06:03:55.048Z,99.90
2018-09-12T06:06:23.302Z,99.90
2018-09-12T06:08:51.447Z,99.90
2018-09-12T06:11:19.670Z,99.90
2018-09-12T06:13:47.866Z,99.90
2018-09-12T06:16:16.086Z,99.90
2018-09-12T06:18:44.280Z,99.90
2018-09-12T06:21:12.557Z,99.90
2018-09-12T06:23:40.771Z,99.90
2018-09-12T06:26:08.983Z,99.90
2018-09-12T06:28:37.223Z,99.90
2018-09-12T06:31:05.624Z,99.90
2018-09-12T06:33:33.804Z,99.90
2018-09-12T06:36:01.990Z,99.90
2018-09-12T06:38:30.312Z,99.90
2018-09-12T06:40:58.388Z,99.90
2018-09-12T06:43:26.568Z,99.90
2018-09-12T06:45:54.759Z,99.90
2018-09-12T06:48:22.948Z,99.90
2018-09-12T06:50:51.142Z,99.90
2018-09-12T06:53:19.411Z,99.90
2018-09-12T06:55:47.597Z,99.90
2018-09-12T06:58:15.792Z,99.90
2018-09-12T07:00:44.024Z,99.90
2018-09-12T07:03:12.192Z,99.90
2018-09-12T07:05:40.398Z,99.90
2018-09-12T07:08:08.595Z,99.90
2018-09-12T07:10:36.775Z,99.90
2018-09-12T07:13:05.069Z,99.90
2018-09-12T07:15:33.271Z,99.90
2018-09-12T07:18:01.435Z,99.90
2018-09-12T07:20:29.648Z,99.90
2018-09-12T07:22:57.881Z,99.90
2018-09-12T07:25:26.191Z,99.90
2018-09-12T07:27:54.479Z,99.90
2018-09-12T07:30:22.696Z,99.90
2018-09-12T07:32:50.860Z,99.90
2018-09-12T07:35:19.038Z,99.90
2018-09-12T07:37:47.230Z,99.90
2018-09-12T07:40:15.416Z,99.90
2018-09-12T07:42:43.614Z,99.90
2018-09-12T07:45:11.815Z,99.90
2018-09-12T07:47:43.037Z,99.90
2018-09-12T07:50:11.222Z,99.90
2018-09-12T07:52:39.402Z,99.90
2018-09-12T07:55:07.689Z,99.90
2018-09-12T07:57:35.908Z,99.90
2018-09-12T08:00:04.461Z,99.90
2018-09-12T08:02:32.654Z,99.90
2018-09-12T08:05:00.932Z,99.90
2018-09-12T08:07:29.094Z,99.90
2018-09-12T08:09:57.293Z,99.90
2018-09-12T08:12:25.496Z,99.90
2018-09-12T08:14:53.688Z,99.90
2018-09-12T08:17:21.904Z,99.90
2018-09-12T08:19:50.093Z,99.90
2018-09-12T08:22:18.273Z,99.90
2018-09-12T08:24:46.488Z,99.90
2018-09-12T08:27:14.678Z,99.90
2018-09-12T08:29:42.891Z,99.90
2018-09-12T08:32:11.092Z,99.90
2018-09-12T08:34:39.285Z,99.90
2018-09-12T08:37:07.483Z,99.90
2018-09-12T08:39:35.702Z,99.90
2018-09-12T08:42:03.930Z,99.90
2018-09-12T08:44:32.110Z,99.90
2018-09-12T08:47:00.332Z,99.90
2018-09-12T08:49:28.535Z,99.90
2018-09-12T08:51:56.724Z,99.90
2018-09-12T08:54:24.941Z,99.90
2018-09-12T08:56:53.247Z,99.90
2018-09-12T08:59:21.367Z,99.90
2018-09-12T09:01:49.547Z,99.90
2018-09-12T09:04:17.748Z,99.90
2018-09-12T09:06:45.970Z,99.40
2018-09-12T09:09:14.212Z,99.90
2018-09-12T09:11:42.409Z,99.90
2018-09-12T09:14:10.595Z,99.30
2018-09-12T09:16:38.784Z,99.40
2018-09-12T09:19:06.995Z,99.20
2018-09-12T09:21:35.175Z,99.30
2018-09-12T09:24:03.370Z,98.60
2018-09-12T09:26:31.567Z,98.50
2018-09-12T09:28:59.767Z,98.20
2018-09-12T09:31:27.967Z,97.80
2018-09-12T09:33:56.502Z,97.70
2018-09-12T09:36:24.688Z,97.50
2018-09-12T09:38:52.897Z,97.60
2018-09-12T09:41:21.256Z,97.70
2018-09-12T09:43:49.483Z,97.20
2018-09-12T09:46:17.763Z,96.70
2018-09-12T09:48:46.059Z,96.60
2018-09-12T09:51:14.263Z,96.60
2018-09-12T09:53:42.453Z,96.30
2018-09-12T09:56:10.636Z,96.20
2018-09-12T09:58:38.859Z,96.00
2018-09-12T10:01:12.387Z,96.10
2018-09-12T10:03:42.207Z,95.70
2018-09-12T10:06:15.865Z,95.20
2018-09-12T10:08:49.411Z,95.30
2018-09-12T10:11:17.607Z,94.70
2018-09-12T10:13:45.800Z,94.30
2018-09-12T10:16:13.992Z,94.60
2018-09-12T10:18:42.184Z,94.30
2018-09-12T10:21:10.434Z,94.30
2018-09-12T10:23:38.659Z,94.30
2018-09-12T10:26:06.890Z,93.50
2018-09-12T10:28:35.114Z,93.90
2018-09-12T10:31:03.343Z,93.70
2018-09-12T10:33:31.536Z,93.30
2018-09-12T10:35:59.735Z,93.50
2018-09-12T10:38:27.958Z,93.50
2018-09-12T10:40:56.194Z,93.40
2018-09-12T10:43:24.391Z,92.90
2018-09-12T10:45:52.610Z,92.60
2018-09-12T10:48:20.816Z,92.50
2018-09-12T10:50:49.077Z,92.70
2018-09-12T10:53:17.258Z,91.30
2018-09-12T10:55:45.484Z,92.20
2018-09-12T10:58:13.697Z,91.60
2018-09-12T11:00:41.916Z,91.10
2018-09-12T11:03:10.099Z,90.40
2018-09-12T11:05:38.325Z,91.00
2018-09-12T11:08:06.562Z,90.90
2018-09-12T11:10:34.751Z,90.70
2018-09-12T11:13:02.941Z,90.90
2018-09-12T11:15:31.150Z,90.50
2018-09-12T11:17:59.332Z,90.80
2018-09-12T11:20:27.550Z,90.60
2018-09-12T11:22:55.738Z,89.40
2018-09-12T11:25:23.943Z,88.80
2018-09-12T11:27:52.156Z,85.40
2018-09-12T11:30:20.375Z,86.10
2018-09-12T11:32:48.594Z,87.00
2018-09-12T11:35:16.831Z,86.90
2018-09-12T11:37:45.076Z,86.60
2018-09-12T11:40:14.778Z,85.60
2018-09-12T11:42:42.938Z,85.80
2018-09-12T11:45:11.140Z,82.80
2018-09-12T11:47:39.358Z,82.10
2018-09-12T11:50:07.533Z,80.20
2018-09-12T11:52:35.753Z,81.90
2018-09-12T11:55:03.929Z,83.10
2018-09-12T11:57:32.211Z,82.10
2018-09-12T12:00:00.371Z,82.70
2018-09-12T12:02:28.692Z,82.10
2018-09-12T12:04:56.884Z,79.80
2018-09-12T12:07:25.207Z,79.20
2018-09-12T12:09:53.416Z,79.40
2018-09-12T12:12:21.659Z,78.80
2018-09-12T12:14:49.945Z,78.60
2018-09-12T12:17:18.147Z,78.10
2018-09-12T12:19:46.328Z,78.90
2018-09-12T12:22:14.511Z,78.00
2018-09-12T12:24:42.711Z,79.70
2018-09-12T12:27:10.924Z,82.10
2018-09-12T12:29:39.103Z,78.60
2018-09-12T12:32:07.314Z,79.90
2018-09-12T12:34:35.501Z,79.80
2018-09-12T12:37:03.769Z,78.10
2018-09-12T12:39:31.986Z,77.60
2018-09-12T12:42:00.215Z,76.70
2018-09-12T12:44:28.435Z,78.00
2018-09-12T12:46:56.637Z,77.30
2018-09-12T12:49:24.859Z,75.60
2018-09-12T12:51:53.068Z,76.50
2018-09-12T12:54:21.252Z,74.80
2018-09-12T12:56:49.429Z,76.70
2018-09-12T12:59:17.631Z,74.10
2018-09-12T13:01:45.823Z,74.50
2018-09-12T13:04:14.030Z,75.60
2018-09-12T13:06:42.241Z,75.80
2018-09-12T13:09:10.457Z,76.20
2018-09-12T13:11:38.670Z,76.30
2018-09-12T13:14:06.876Z,74.60
2018-09-12T13:16:35.093Z,73.10
2018-09-12T13:19:03.319Z,72.60
2018-09-12T13:21:31.585Z,74.40
2018-09-12T13:23:59.698Z,73.20
2018-09-12T13:26:27.875Z,72.50
2018-09-12T13:28:56.070Z,75.00
2018-09-12T13:31:24.278Z,71.90
2018-09-12T13:33:52.533Z,72.50
2018-09-12T13:36:20.740Z,72.50
2018-09-12T13:38:48.960Z,72.40
2018-09-12T13:41:17.153Z,71.90
2018-09-12T13:43:45.347Z,72.10
2018-09-12T13:46:13.538Z,72.80
2018-09-12T13:48:41.736Z,74.30
2018-09-12T13:51:09.917Z,70.60
2018-09-12T13:53:38.107Z,72.20
2018-09-12T13:56:06.337Z,74.60
2018-09-12T13:58:34.558Z,71.40
2018-09-12T14:01:02.751Z,69.80
2018-09-12T14:03:30.982Z,70.80
2018-09-12T14:05:59.229Z,70.60
2018-09-12T14:08:27.405Z,71.80
2018-09-12T14:10:55.595Z,69.70
2018-09-12T14:13:23.776Z,70.20
2018-09-12T14:15:52.089Z,70.20
2018-09-12T14:18:20.287Z,70.10
2018-09-12T14:20:48.464Z,71.30
2018-09-12T14:23:16.677Z,72.30
2018-09-12T14:25:44.858Z,69.20
2018-09-12T14:28:13.056Z,70.00
2018-09-12T14:30:41.228Z,69.10
2018-09-12T14:33:09.410Z,70.30
2018-09-12T14:35:37.623Z,70.80
2018-09-12T14:38:05.844Z,70.80
2018-09-12T14:40:34.043Z,70.30
2018-09-12T14:43:02.216Z,69.50
2018-09-12T14:45:30.855Z,67.80
2018-09-12T14:47:59.233Z,68.90
2018-09-12T14:50:27.441Z,69.30
2018-09-12T14:52:55.627Z,68.50
2018-09-12T14:55:23.840Z,69.50
2018-09-12T14:57:52.073Z,70.60
2018-09-12T15:00:26.341Z,69.30
2018-09-12T15:02:55.461Z,69.90
2018-09-12T15:05:24.013Z,70.90
2018-09-12T15:07:52.201Z,69.40
2018-09-12T15:10:20.445Z,69.30
2018-09-12T15:12:48.554Z,70.50
2018-09-12T15:15:16.804Z,69.00
2018-09-12T15:17:46.063Z,69.90
2018-09-12T15:20:15.274Z,69.60
2018-09-12T15:22:43.887Z,68.00
2018-09-12T15:25:12.446Z,68.80
2018-09-12T15:27:40.659Z,69.30
2018-09-12T15:30:09.319Z,70.30
2018-09-12T15:32:37.568Z,69.10
2018-09-12T15:35:05.800Z,67.80
2018-09-12T15:37:34.000Z,69.10
2018-09-12T15:40:02.309Z,69.00
2018-09-12T15:42:30.512Z,69.90
2018-09-12T15:44:58.903Z,68.90
2018-09-12T15:47:27.101Z,69.40
2018-09-12T15:49:55.333Z,70.40
2018-09-12T15:52:23.562Z,69.40
2018-09-12T15:54:51.786Z,70.50
2018-09-12T15:57:20.028Z,70.70
2018-09-12T15:59:48.320Z,70.60
2018-09-12T16:02:16.534Z,69.90
2018-09-12T16:04:44.728Z,72.30
2018-09-12T16:07:12.972Z,73.20
2018-09-12T16:09:41.140Z,72.90
2018-09-12T16:12:10.430Z,72.50
2018-09-12T16:14:38.623Z,72.30
2018-09-12T16:17:06.824Z,72.20
2018-09-12T16:19:35.095Z,72.50
2018-09-12T16:22:03.324Z,71.90
2018-09-12T16:24:31.632Z,71.10
2018-09-12T16:26:59.816Z,71.00
2018-09-12T16:29:28.019Z,71.10
2018-09-12T16:31:56.235Z,71.90
2018-09-12T16:34:24.438Z,71.50
2018-09-12T16:36:52.642Z,71.70
2018-09-12T16:39:20.863Z,71.70
2018-09-12T16:41:49.072Z,72.10
2018-09-12T16:44:17.242Z,73.20
2018-09-12T16:46:45.451Z,73.10
2018-09-12T16:49:13.644Z,74.90
2018-09-12T16:51:41.959Z,74.90
2018-09-12T16:54:10.023Z,74.60
2018-09-12T16:56:38.275Z,73.00
2018-09-12T16:59:06.489Z,73.70
2018-09-12T17:01:34.699Z,74.50
2018-09-12T17:04:02.892Z,76.00
2018-09-12T17:06:31.285Z,76.40
2018-09-12T17:08:59.501Z,76.80
2018-09-12T17:11:27.691Z,78.20
2018-09-12T17:13:55.899Z,79.40
2018-09-12T17:16:24.109Z,80.50
2018-09-12T17:18:52.301Z,81.10
2018-09-12T17:21:20.500Z,81.90
2018-09-12T17:23:48.708Z,82.60
2018-09-12T17:26:16.915Z,83.10
2018-09-12T17:28:45.116Z,83.90
2018-09-12T17:31:13.306Z,85.60
2018-09-12T17:33:41.520Z,86.40
2018-09-12T17:36:09.730Z,86.90
2018-09-12T17:38:57.100Z,87.00
2018-09-12T17:41:25.310Z,87.20
2018-09-12T17:43:53.911Z,88.00
2018-09-12T17:46:22.191Z,88.70
2018-09-12T17:48:51.434Z,89.60
2018-09-12T17:51:19.652Z,89.00
2018-09-12T17:53:47.864Z,89.50
2018-09-12T17:56:16.083Z,89.70
2018-09-12T17:58:44.345Z,89.00
2018-09-12T18:01:12.619Z,89.60
2018-09-12T18:03:40.848Z,89.80
2018-09-12T18:06:09.068Z,89.90
2018-09-12T18:08:37.288Z,90.70
2018-09-12T18:11:05.604Z,90.20
2018-09-12T18:13:33.703Z,90.60
2018-09-12T18:16:01.902Z,90.30
2018-09-12T18:18:30.111Z,90.70
2018-09-12T18:20:58.324Z,90.80
2018-09-12T18:23:26.521Z,90.70
2018-09-12T18:25:54.716Z,91.20
2018-09-12T18:28:22.947Z,91.90
2018-09-12T18:30:51.560Z,92.20
2018-09-12T18:33:19.778Z,92.30
2018-09-12T18:35:47.991Z,92.40
2018-09-12T18:38:16.239Z,92.80
2018-09-12T18:40:44.458Z,93.10
2018-09-12T18:43:12.674Z,93.60
2018-09-12T18:45:40.903Z,94.00
2018-09-12T18:48:09.155Z,94.00
2018-09-12T18:50:37.369Z,93.70
2018-09-12T18:53:05.582Z,94.00
2018-09-12T18:55:33.792Z,93.30
2018-09-12T18:58:02.033Z,94.00
2018-09-12T19:00:30.278Z,93.90
2018-09-12T19:02:59.299Z,93.90
2018-09-12T19:05:27.539Z,93.70
2018-09-12T19:07:55.739Z,93.70
2018-09-12T19:10:23.979Z,93.40
2018-09-12T19:12:52.214Z,93.50
2018-09-12T19:15:20.606Z,93.30
2018-09-12T19:17:48.793Z,93.20
2018-09-12T19:20:17.072Z,93.50
2018-09-12T19:22:45.358Z,93.40
2018-09-12T19:25:13.564Z,93.30
2018-09-12T19:27:41.773Z,93.20
2018-09-12T19:30:09.996Z,93.10
2018-09-12T19:32:38.204Z,93.20
2018-09-12T19:35:06.637Z,93.20
2018-09-12T19:37:34.859Z,93.20
2018-09-12T19:40:03.329Z,93.40
2018-09-12T19:42:31.791Z,93.40
2018-09-12T19:45:00.217Z,93.40
2018-09-12T19:47:28.424Z,93.40
2018-09-12T19:49:56.680Z,93.50
2018-09-12T19:52:24.905Z,93.70
2018-09-12T19:54:53.196Z,93.80
2018-09-12T19:57:21.375Z,93.90
2018-09-12T19:59:49.615Z,94.40
2018-09-12T20:02:24.833Z,94.40
2018-09-12T20:04:53.063Z,94.40
2018-09-12T20:07:21.373Z,94.00
2018-09-12T20:09:50.368Z,94.10
2018-09-12T20:12:18.931Z,94.20
2018-09-12T20:14:47.136Z,94.40
2018-09-12T20:17:15.377Z,94.50
2018-09-12T20:19:43.594Z,94.50
2018-09-12T20:22:11.822Z,94.50
2018-09-12T20:24:40.056Z,94.60
2018-09-12T20:27:08.573Z,95.40
2018-09-12T20:29:36.722Z,95.50
2018-09-12T20:32:04.935Z,95.30
2018-09-12T20:34:33.163Z,95.30
2018-09-12T20:37:01.395Z,95.50
2018-09-12T20:39:29.627Z,95.80
2018-09-12T20:41:57.837Z,95.80
2018-09-12T20:44:26.050Z,95.90
2018-09-12T20:46:54.277Z,95.80
2018-09-12T20:49:22.478Z,96.10
2018-09-12T20:51:50.740Z,96.40
2018-09-12T20:54:18.976Z,96.40
2018-09-12T20:56:47.695Z,96.60
2018-09-12T20:59:16.071Z,96.80
2018-09-12T21:01:44.322Z,96.90
2018-09-12T21:04:12.834Z,96.70
2018-09-12T21:06:41.244Z,96.70
2018-09-12T21:09:11.548Z,96.80
2018-09-12T21:11:40.236Z,96.90
2018-09-12T21:14:08.848Z,97.20
2018-09-12T21:16:37.123Z,97.30
2018-09-12T21:19:05.703Z,97.40
2018-09-12T21:21:34.031Z,97.40
2018-09-12T21:24:02.230Z,97.50
2018-09-12T21:26:30.460Z,98.30
2018-09-12T21:28:58.672Z,98.40
2018-09-12T21:31:26.895Z,98.00
2018-09-12T21:33:55.106Z,98.20
2018-09-12T21:36:23.454Z,98.60
2018-09-12T21:38:51.947Z,98.60
2018-09-12T21:41:20.146Z,98.70
2018-09-12T21:43:48.356Z,98.70
2018-09-12T21:46:16.605Z,98.70
2018-09-12T21:48:44.828Z,99.60
2018-09-12T21:51:13.042Z,99.40
2018-09-12T21:53:41.272Z,99.90
2018-09-12T21:56:09.576Z,99.90
2018-09-12T21:58:37.802Z,99.80
2018-09-12T22:01:06.010Z,99.90
2018-09-12T22:03:34.247Z,99.90
2018-09-12T22:06:02.484Z,99.80
2018-09-12T22:08:30.745Z,99.80
2018-09-12T22:10:58.946Z,99.90
2018-09-12T22:13:27.187Z,99.90
2018-09-12T22:15:55.384Z,99.90
2018-09-12T22:18:23.619Z,99.90
2018-09-12T22:20:51.831Z,99.90
2018-09-12T22:23:20.053Z,99.90
2018-09-12T22:25:48.271Z,99.90
2018-09-12T22:28:16.491Z,99.90
2018-09-12T22:30:45.035Z,99.90
2018-09-12T22:33:13.277Z,99.90
2018-09-12T22:35:41.496Z,99.90
2018-09-12T22:38:09.715Z,99.90
2018-09-12T22:40:37.928Z,99.90
2018-09-12T22:43:06.166Z,99.90
2018-09-12T22:45:34.406Z,99.90
2018-09-12T22:48:02.610Z,99.90
2018-09-12T22:50:30.790Z,99.90
2018-09-12T22:52:59.047Z,99.90
2018-09-12T22:55:27.230Z,99.90
2018-09-12T22:57:55.448Z,99.90
2018-09-12T23:00:23.904Z,99.90
2018-09-12T23:02:52.090Z,99.90
2018-09-12T23:05:20.275Z,99.90
2018-09-12T23:07:48.455Z,99.90
2018-09-12T23:10:16.686Z,99.90
2018-09-12T23:12:44.866Z,99.90
2018-09-12T23:15:13.136Z,99.90
2018-09-12T23:17:41.339Z,99.90
2018-09-12T23:20:09.556Z,99.90
2018-09-12T23:22:37.737Z,99.90
2018-09-12T23:25:05.928Z,99.90
2018-09-12T23:27:34.092Z,99.90
2018-09-12T23:30:02.303Z,99.90
2018-09-12T23:32:30.547Z,99.90
2018-09-12T23:34:58.742Z,99.90
2018-09-12T23:37:26.936Z,99.90
2018-09-12T23:39:55.128Z,99.90
2018-09-12T23:42:23.299Z,99.90
2018-09-12T23:44:51.485Z,99.90
2018-09-12T23:47:19.667Z,99.90
2018-09-12T23:49:47.846Z,99.90
2018-09-12T23:52:16.012Z,99.90
2018-09-12T23:54:44.192Z,99.90
2018-09-12T23:57:12.372Z,99.90
2018-09-12T23:59:40.563Z,99.90
